GLD1028 SBEK-PGFA
Flight info
| Callsign | GLD1028 |
|---|---|
| Flight time | N/A |
| Altitude | 4500 |
| Route | DCT 0616S05801W 0616S05816W DCT |
| Aircraft | C152/L-SDFGIRY/S |
Departure
| Time | 2026-04-25 15:25 |
|---|---|
| Airport | Jacareacanga Airport (SBEK) |
Arrival
| Time | N/A |
|---|---|
| Airport | PGFA |
| Time | Latitude | Longitude | Altitude | Speed | Heading |
|---|---|---|---|---|---|
| 2026-04-25 15:12 | -6.23494 | -57.77548 | 312 ft | 0 kts | 131° |
| 2026-04-25 15:19 | -6.23496 | -57.77540 | 313 ft | 7 kts | 56° |
| 2026-04-25 15:19 | -6.23485 | -57.77589 | 310 ft | 10 kts | 279° |
| 2026-04-25 15:20 | -6.23418 | -57.77656 | 306 ft | 18 kts | 336° |
| 2026-04-25 15:20 | -6.23392 | -57.77670 | 305 ft | 0 kts | 327° |
| 2026-04-25 15:20 | -6.23384 | -57.77673 | 305 ft | 8 kts | 334° |
| 2026-04-25 15:20 | -6.23306 | -57.77656 | 304 ft | 19 kts | 56° |
| 2026-04-25 15:21 | -6.23243 | -57.77540 | 303 ft | 15 kts | 67° |
| 2026-04-25 15:21 | -6.23192 | -57.77441 | 304 ft | 17 kts | 71° |
| 2026-04-25 15:21 | -6.23137 | -57.77323 | 303 ft | 20 kts | 62° |
| 2026-04-25 15:21 | -6.23074 | -57.77201 | 306 ft | 19 kts | 64° |
| 2026-04-25 15:22 | -6.23012 | -57.77106 | 308 ft | 12 kts | 20° |
| 2026-04-25 15:22 | -6.22989 | -57.77045 | 308 ft | 10 kts | 137° |
| 2026-04-25 15:22 | -6.23002 | -57.77061 | 308 ft | 0 kts | 244° |
| 2026-04-25 15:22 | -6.23017 | -57.77090 | 308 ft | 21 kts | 240° |
| 2026-04-25 15:23 | -6.23154 | -57.77361 | 304 ft | 64 kts | 242° |
| 2026-04-25 15:23 | -6.23373 | -57.77804 | 393 ft | 74 kts | 244° |
| 2026-04-25 15:23 | -6.23592 | -57.78282 | 505 ft | 78 kts | 244° |
| 2026-04-25 15:23 | -6.23814 | -57.78775 | 647 ft | 77 kts | 243° |
| 2026-04-25 15:24 | -6.24100 | -57.79308 | 689 ft | 96 kts | 243° |
| 2026-04-25 15:24 | -6.24383 | -57.79938 | 778 ft | 101 kts | 245° |
| 2026-04-25 15:24 | -6.24675 | -57.80594 | 850 ft | 106 kts | 250° |
| 2026-04-25 15:24 | -6.24721 | -57.80841 | 876 ft | 107 kts | 271° |
| 2026-04-25 15:25 | -6.24216 | -57.81901 | 1027 ft | 97 kts | 275° |
| 2026-04-25 15:25 | -6.24267 | -57.82544 | 1141 ft | 91 kts | 267° |
| 2026-04-25 15:25 | -6.24322 | -57.83164 | 1243 ft | 90 kts | 263° |
| 2026-04-25 15:25 | -6.24391 | -57.83779 | 1334 ft | 89 kts | 264° |
| 2026-04-25 15:26 | -6.24466 | -57.84401 | 1422 ft | 89 kts | 262° |
| 2026-04-25 15:26 | -6.24543 | -57.85000 | 1515 ft | 86 kts | 262° |
| 2026-04-25 15:26 | -6.24621 | -57.85592 | 1613 ft | 86 kts | 263° |
| 2026-04-25 15:26 | -6.24702 | -57.86204 | 1714 ft | 91 kts | 262° |
| 2026-04-25 15:27 | -6.24786 | -57.86823 | 1823 ft | 91 kts | 262° |
| 2026-04-25 15:27 | -6.24870 | -57.87458 | 1926 ft | 93 kts | 263° |
| 2026-04-25 15:27 | -6.25042 | -57.88723 | 2093 ft | 84 kts | 262° |
| 2026-04-25 15:28 | -6.25120 | -57.89288 | 2191 ft | 83 kts | 265° |
| 2026-04-25 15:28 | -6.25197 | -57.89854 | 2258 ft | 82 kts | 263° |
| 2026-04-25 15:28 | -6.25274 | -57.90426 | 2321 ft | 84 kts | 263° |
| 2026-04-25 15:28 | -6.25356 | -57.91034 | 2368 ft | 94 kts | 263° |
| 2026-04-25 15:29 | -6.25445 | -57.91700 | 2407 ft | 99 kts | 263° |
| 2026-04-25 15:29 | -6.25538 | -57.92381 | 2503 ft | 97 kts | 263° |
| 2026-04-25 15:29 | -6.25630 | -57.93061 | 2620 ft | 101 kts | 264° |
| 2026-04-25 15:29 | -6.25725 | -57.93765 | 2715 ft | 100 kts | 263° |
| 2026-04-25 15:30 | -6.25819 | -57.94456 | 2817 ft | 100 kts | 265° |
| 2026-04-25 15:30 | -6.25913 | -57.95144 | 2908 ft | 98 kts | 264° |
| 2026-04-25 15:30 | -6.26004 | -57.95815 | 3001 ft | 96 kts | 264° |
| 2026-04-25 15:30 | -6.26092 | -57.96457 | 3092 ft | 93 kts | 264° |
| 2026-04-25 15:31 | -6.26181 | -57.97111 | 3186 ft | 95 kts | 264° |
| 2026-04-25 15:31 | -6.26270 | -57.97768 | 3273 ft | 93 kts | 265° |
| 2026-04-25 15:31 | -6.26357 | -57.98411 | 3347 ft | 94 kts | 265° |
| 2026-04-25 15:31 | -6.26447 | -57.99074 | 3419 ft | 96 kts | 265° |
| 2026-04-25 15:32 | -6.26541 | -57.99756 | 3513 ft | 101 kts | 262° |
| 2026-04-25 15:32 | -6.26636 | -58.00460 | 3649 ft | 107 kts | 264° |
| 2026-04-25 15:32 | -6.26694 | -58.01254 | 3747 ft | 118 kts | 272° |
| 2026-04-25 15:33 | -6.26672 | -58.02891 | 3878 ft | 114 kts | 272° |
| 2026-04-25 15:33 | -6.26669 | -58.03668 | 3938 ft | 108 kts | 273° |
| 2026-04-25 15:33 | -6.26666 | -58.04406 | 4006 ft | 103 kts | 274° |
| 2026-04-25 15:33 | -6.26661 | -58.05117 | 4073 ft | 101 kts | 274° |
| 2026-04-25 15:34 | -6.26657 | -58.05820 | 4143 ft | 101 kts | 274° |
| 2026-04-25 15:34 | -6.26652 | -58.06530 | 4211 ft | 101 kts | 274° |
| 2026-04-25 15:34 | -6.26648 | -58.07221 | 4282 ft | 99 kts | 275° |
| 2026-04-25 15:34 | -6.26647 | -58.07453 | 4305 ft | 97 kts | 274° |
| 2026-04-25 15:35 | -6.26635 | -58.09235 | 4478 ft | 99 kts | 274° |
| 2026-04-25 15:35 | -6.26629 | -58.09948 | 4482 ft | 104 kts | 274° |
| 2026-04-25 15:35 | -6.26623 | -58.10688 | 4492 ft | 108 kts | 273° |
| 2026-04-25 15:36 | -6.26613 | -58.12197 | 4495 ft | 108 kts | 274° |
| 2026-04-25 15:36 | -6.26607 | -58.12964 | 4492 ft | 110 kts | 274° |
| 2026-04-25 15:36 | -6.26603 | -58.13735 | 4493 ft | 110 kts | 273° |
| 2026-04-25 15:37 | -6.26597 | -58.14487 | 4486 ft | 109 kts | 273° |
| 2026-04-25 15:37 | -6.26592 | -58.15255 | 4484 ft | 110 kts | 274° |
| 2026-04-25 15:37 | -6.26587 | -58.16029 | 4489 ft | 112 kts | 274° |
| 2026-04-25 15:37 | -6.26582 | -58.16810 | 4489 ft | 112 kts | 273° |
| 2026-04-25 15:38 | -6.26577 | -58.17591 | 4490 ft | 111 kts | 273° |
| 2026-04-25 15:38 | -6.26571 | -58.18359 | 4488 ft | 109 kts | 273° |
| 2026-04-25 15:38 | -6.26565 | -58.19131 | 4487 ft | 112 kts | 272° |
| 2026-04-25 15:38 | -6.26560 | -58.19909 | 4485 ft | 111 kts | 272° |
| 2026-04-25 15:39 | -6.26555 | -58.20670 | 4483 ft | 110 kts | 273° |
| 2026-04-25 15:39 | -6.26550 | -58.21444 | 4486 ft | 112 kts | 272° |
| 2026-04-25 15:39 | -6.26544 | -58.22239 | 4486 ft | 114 kts | 272° |
| 2026-04-25 15:39 | -6.26539 | -58.23027 | 4480 ft | 111 kts | 274° |
| 2026-04-25 15:40 | -6.26534 | -58.23790 | 4474 ft | 108 kts | 274° |
| 2026-04-25 15:40 | -6.26532 | -58.24045 | 4475 ft | 108 kts | 274° |
| 2026-04-25 15:40 | -6.26523 | -58.25295 | 4476 ft | 109 kts | 273° |
| 2026-04-25 15:40 | -6.26484 | -58.26055 | 4470 ft | 108 kts | 289° |
| 2026-04-25 15:41 | -6.26229 | -58.26752 | 4478 ft | 108 kts | 295° |
| 2026-04-25 15:41 | -6.25974 | -58.27463 | 4411 ft | 113 kts | 295° |
| 2026-04-25 15:41 | -6.25701 | -58.28216 | 4173 ft | 114 kts | 295° |
| 2026-04-25 15:41 | -6.25434 | -58.28963 | 3932 ft | 113 kts | 295° |
| 2026-04-25 15:42 | -6.25169 | -58.29703 | 3695 ft | 112 kts | 294° |
| 2026-04-25 15:42 | -6.24995 | -58.30192 | 3534 ft | 113 kts | 294° |
| 2026-04-25 15:42 | -6.24638 | -58.31188 | 3220 ft | 113 kts | 294° |
| 2026-04-25 15:42 | -6.24374 | -58.31927 | 2975 ft | 111 kts | 292° |
| 2026-04-25 15:43 | -6.24203 | -58.32407 | 2811 ft | 110 kts | 294° |
| 2026-04-25 15:43 | -6.23862 | -58.33353 | 2504 ft | 110 kts | 293° |
| 2026-04-25 15:43 | -6.23617 | -58.34048 | 2477 ft | 100 kts | 295° |
| 2026-04-25 15:43 | -6.23391 | -58.34684 | 2469 ft | 93 kts | 296° |
| 2026-04-25 15:44 | -6.23198 | -58.35232 | 2466 ft | 74 kts | 293° |
| 2026-04-25 15:44 | -6.23075 | -58.35576 | 2476 ft | 88 kts | 292° |
| 2026-04-25 15:44 | -6.22758 | -58.36451 | 2466 ft | 109 kts | 293° |
| 2026-04-25 15:44 | -6.22589 | -58.36917 | 2398 ft | 105 kts | 294° |
| 2026-04-25 15:45 | -6.22357 | -58.37569 | 2310 ft | 94 kts | 292° |
| 2026-04-25 15:45 | -6.22061 | -58.38395 | 2224 ft | 96 kts | 293° |
| 2026-04-25 15:45 | -6.21833 | -58.39032 | 2151 ft | 99 kts | 291° |
| 2026-04-25 15:45 | -6.21754 | -58.39253 | 2121 ft | 100 kts | 291° |
| 2026-04-25 15:46 | -6.21454 | -58.40092 | 2018 ft | 94 kts | 293° |
| 2026-04-25 15:46 | -6.21141 | -58.40962 | 1871 ft | 107 kts | 292° |
| 2026-04-25 15:46 | -6.20976 | -58.41421 | 1789 ft | 103 kts | 292° |
| 2026-04-25 15:46 | -6.20747 | -58.42065 | 1662 ft | 93 kts | 291° |
| 2026-04-25 15:47 | -6.20513 | -58.42644 | 1560 ft | 87 kts | 299° |
| 2026-04-25 15:47 | -6.20292 | -58.43203 | 1442 ft | 85 kts | 295° |
| 2026-04-25 15:47 | -6.20014 | -58.43925 | 1273 ft | 92 kts | 294° |
| 2026-04-25 15:47 | -6.19763 | -58.44561 | 1081 ft | 99 kts | 294° |
| 2026-04-25 15:48 | -6.19593 | -58.44973 | 967 ft | 89 kts | 294° |
| 2026-04-25 15:48 | -6.19369 | -58.45670 | 694 ft | 68 kts | 287° |
| 2026-04-25 15:48 | -6.19293 | -58.45970 | 570 ft | 68 kts | 286° |
| 2026-04-25 15:48 | -6.19143 | -58.46513 | 1015 ft | 0 kts | 286° |